Veendam — PHEO — position and weather

sailwx.info

Track history (hours):
 
Tides and Currents Weather Stations Pressure Air Temp Water Temp Dewpoint Dewpoint Depression Visibility Wind Speed Wind Dir Waves Ship Positions

Veendam (Netherlands)

Last reported at 2019-Jul-15 06:17 UTC. Time now 2019-Jul-16 02:02 UTC.
Position N 44°38' E 013°01'.

Type: Ship. MMSI: 246506000.

Date/timePositionNaut miles runAvg speedWind from/ knotsBaromVisibWave heightAir tempDewpointWater temp
2019-Jul-15 06:17N 44°38' E 013°01'412.4
2019-Jul-15 06:00N 44°41' E 012°59'612.2
2019-Jul-15 05:30N 44°47' E 012°56'612.2
2019-Jul-15 04:58N 44°53' E 012°52'612.4
2019-Jul-15 04:30N 44°58' E 012°48'612.7
2019-Jul-15 04:00N 45°04' E 012°45'611.9
2019-Jul-15 03:30N 45°08' E 012°39'612.6
2019-Jul-15 03:00N 45°11' E 012°31'713.1
2019-Jul-15 02:31N 45°18' E 012°30'611.6
2019-Jul-15 02:00N 45°24' E 012°29'4 8.9
2019-Jul-15 01:31N 45°26' E 012°24'2 4.3
2019-Jul-15 01:00N 45°26' E 012°21'2 3.5
2019-Jul-15 00:30N 45°26' E 012°18'0 0.7
2019-Jul-14 23:58N 45°26' E 012°18'0 0.0
2019-Jul-14 23:28N 45°26' E 012°18'0 0.0
2019-Jul-14 22:58N 45°26' E 012°18'0 0.0
2019-Jul-14 22:28N 45°26' E 012°18'0 0.0
2019-Jul-14 21:58N 45°26' E 012°18'0 0.0
2019-Jul-14 21:28N 45°26' E 012°18'0 0.0
2019-Jul-14 20:58N 45°26' E 012°18'0 0.0
2019-Jul-14 20:28N 45°26' E 012°18'0 0.0
2019-Jul-14 19:58N 45°26' E 012°18'0 0.0
2019-Jul-14 19:28N 45°26' E 012°18'0 0.0
2019-Jul-14 18:58N 45°26' E 012°18'0 0.0
2019-Jul-14 18:28N 45°26' E 012°18'0 0.0
2019-Jul-14 17:58N 45°26' E 012°18'0 0.0
2019-Jul-14 17:28N 45°26' E 012°18'0 0.0
2019-Jul-14 16:58N 45°26' E 012°18'0 0.0
2019-Jul-14 16:28N 45°26' E 012°18'0 0.0
2019-Jul-14 15:58N 45°26' E 012°18'0 0.0
2019-Jul-14 15:28N 45°26' E 012°18'0 0.0
2019-Jul-14 14:58N 45°26' E 012°18'0 0.0
2019-Jul-14 14:28N 45°26' E 012°18'0 0.0
2019-Jul-14 13:58N 45°26' E 012°18'0 0.0
2019-Jul-14 13:28N 45°26' E 012°18'0 0.0
2019-Jul-14 12:58N 45°26' E 012°18'0 0.0
2019-Jul-14 12:28N 45°26' E 012°18'0 0.0
2019-Jul-14 11:55N 45°26' E 012°18'0 0.0
2019-Jul-14 11:28N 45°26' E 012°18'0 0.0
2019-Jul-14 10:58N 45°26' E 012°18'0 0.0
2019-Jul-14 10:28N 45°26' E 012°18'0 0.0
2019-Jul-14 09:58N 45°26' E 012°18'0 0.0
2019-Jul-14 09:28N 45°26' E 012°18'0 0.0
2019-Jul-14 08:58N 45°26' E 012°18'0 0.0
2019-Jul-14 08:28N 45°26' E 012°18'0 0.0
2019-Jul-14 07:58N 45°26' E 012°18'0 0.0
2019-Jul-14 07:28N 45°26' E 012°18'0 0.0
2019-Jul-14 06:58N 45°26' E 012°18'0 0.0
2019-Jul-14 06:28N 45°26' E 012°18'0 0.0
2019-Jul-14 05:58N 45°26' E 012°18'0 0.0
2019-Jul-14 05:28N 45°26' E 012°18'0 0.0
2019-Jul-14 04:58N 45°26' E 012°18'0 0.0
2019-Jul-14 04:28N 45°26' E 012°18'0 1.0
2019-Jul-14 04:00N 45°26' E 012°18'2 4.5
2019-Jul-14 03:30N 45°25' E 012°22'2 4.7
2019-Jul-14 03:00N 45°26' E 012°25'4 8.2
2019-Jul-14 02:30N 45°24' E 012°30'5 9.9
2019-Jul-14 02:00N 45°21' E 012°36'612.3
2019-Jul-14 01:30N 45°17' E 012°42'612.4
2019-Jul-14 01:00N 45°11' E 012°46'612.9
2019-Jul-14 00:30N 45°05' E 012°50'612.9
2019-Jul-14 00:00N 44°59' E 012°53'510.5
2019-Jul-13 23:30N 44°56' E 012°59'612.4
2019-Jul-13 23:00N 44°56' E 013°08'713.8
2019-Jul-13 22:30N 44°56' E 013°17'612.2
2019-Jul-13 22:00N 44°54' E 013°25'612.8
2019-Jul-13 21:30N 44°49' E 013°31'613.0
2019-Jul-13 21:00N 44°43' E 013°37'712.6
2019-Jul-13 20:29N 44°38' E 013°43'612.4
2019-Jul-13 20:00N 44°34' E 013°49'510.8
2019-Jul-13 19:30N 44°36' E 013°56'713.8
2019-Jul-13 19:01N 44°41' E 014°01'714.1
2019-Jul-13 18:30N 44°47' E 014°06'714.0
2019-Jul-13 18:00N 44°54' E 014°11'2 0.1
2019-Jul-13 05:12N 44°55' E 014°12'315.0
2019-Jul-13 04:58N 44°52' E 014°10'816.8
2019-Jul-13 04:30N 44°45' E 014°06'816.9
2019-Jul-13 04:01N 44°37' E 014°03'918.1
2019-Jul-13 03:31N 44°29' E 014°09'1218.2
2019-Jul-13 02:50N 44°18' E 014°17'2018.3
2019-Jul-13 01:44N 44°01' E 014°31'2027.2
2019-Jul-13 01:00N 43°42' E 014°42'375 7.7 150 / 41010.010.8 23.018.3
2019-Jul-11 00:00N 39°00' E 020°12'98 4.7 300 / 501002.010.8 27.022.6
2019-Jul-10 03:00N 37°24' E 020°36'5919.5 340 / 111009.0 5.4 27.0 27.0
2019-Jul-10 00:00N 36°36' E 021°18'9513.8 320 / 201009.0 5.4 27.025.6
2019-Jul-09 17:08N 36°30' E 023°16'3218.6
2019-Jul-09 15:24N 37°01' E 023°05'35 4.7
2019-Jul-09 08:00N 37°30' E 022°42'19 3.6 160 / 121010.0 5.4 28.020.5
2019-Jul-09 02:39N 37°17' E 023°01'413.6
2019-Jul-09 02:23N 37°15' E 023°03'613.4
2019-Jul-09 01:56N 37°10' E 023°08'613.5
2019-Jul-09 01:30N 37°08' E 023°15'813.8
2019-Jul-09 00:55N 37°07' E 023°25'614.1
2019-Jul-09 00:30N 37°06' E 023°32'713.7
2019-Jul-09 00:00N 37°06' E 023°41'713.5
2019-Jul-08 23:30N 37°08' E 023°49'612.4
2019-Jul-08 23:00N 37°13' E 023°54'7446.4
2019-Jul-08 23:00N 37°06' E 023°54'1531.2 120 / 101010.0 5.4 28.020.5
2019-Jul-08 22:31N 37°21' E 023°54'917.4
2019-Jul-08 22:01N 37°29' E 023°50'917.8
2019-Jul-08 21:31N 37°37' E 023°45'917.6
2019-Jul-08 21:01N 37°45' E 023°40'816.7
2019-Jul-08 20:30N 37°53' E 023°36'4 8.1
2019-Jul-08 20:00N 37°56' E 023°38'0 0.2
2019-Jul-08 19:30N 37°56' E 023°38'0 0.0
2019-Jul-08 19:00N 37°56' E 023°38'0 0.0
2019-Jul-08 18:30N 37°56' E 023°38'0 0.0
2019-Jul-08 18:00N 37°56' E 023°38'0 0.0
2019-Jul-08 17:27N 37°56' E 023°38'0 0.0
2019-Jul-08 16:57N 37°56' E 023°38'0 0.0
2019-Jul-08 16:30N 37°56' E 023°38'0 0.0
2019-Jul-08 16:00N 37°56' E 023°38'0 0.0
2019-Jul-08 15:30N 37°56' E 023°38'0 0.0
2019-Jul-08 15:00N 37°56' E 023°38'0 0.0
2019-Jul-08 14:30N 37°56' E 023°38'0 0.0
2019-Jul-08 13:57N 37°56' E 023°38'0 0.0
2019-Jul-08 13:30N 37°56' E 023°38'0 0.0
2019-Jul-08 13:00N 37°56' E 023°38'0 0.0
2019-Jul-08 12:30N 37°56' E 023°38'0 0.0
2019-Jul-08 12:00N 37°56' E 023°38'0 0.0
2019-Jul-08 11:30N 37°56' E 023°38'0 0.0
2019-Jul-08 11:00N 37°56' E 023°38'0 0.0
2019-Jul-08 10:30N 37°56' E 023°38'0 0.0
2019-Jul-08 10:00N 37°56' E 023°38'0 0.0
2019-Jul-08 09:30N 37°56' E 023°38'0 0.0
2019-Jul-08 09:00N 37°56' E 023°38'0 0.0
2019-Jul-08 08:30N 37°56' E 023°38'0 0.0
2019-Jul-08 08:00N 37°56' E 023°38'0 0.0
2019-Jul-08 07:30N 37°56' E 023°38'0 0.0
2019-Jul-08 07:00N 37°56' E 023°38'0 0.0
2019-Jul-08 06:30N 37°56' E 023°38'0 0.0
2019-Jul-08 06:00N 37°56' E 023°38'0 0.0
2019-Jul-08 05:27N 37°56' E 023°38'0 0.0
2019-Jul-08 05:00N 37°56' E 023°38'0 0.0
2019-Jul-08 04:27N 37°56' E 023°38'0 0.0
2019-Jul-08 04:00N 37°56' E 023°38'0 0.0
2019-Jul-08 03:30N 37°56' E 023°38'0 0.0
2019-Jul-08 03:00N 37°56' E 023°38'0 0.0
2019-Jul-08 02:27N 37°56' E 023°38'0 0.4
2019-Jul-08 02:01N 37°57' E 023°38'2 4.5
2019-Jul-08 01:30N 37°54' E 023°37'714.3
2019-Jul-08 01:01N 37°48' E 023°41'714.7
2019-Jul-08 00:30N 37°41' E 023°45'611.6
2019-Jul-08 00:00N 37°36' E 023°48'612.6
2019-Jul-07 23:30N 37°30' E 023°50'1223.9
2019-Jul-07 23:00N 37°18' E 023°54'211.2 220 / 51008.010.8 26.019.9
2019-Jul-07 22:48N 37°19' E 023°56'97 4.1
2019-Jul-06 23:00N 36°18' E 025°30'105 4.6 320 / 201008.010.8 25.019.6
2019-Jul-06 00:00N 37°54' E 026°24'2911.6 360 / 201009.010.8 23.519.6
2019-Jul-05 21:27N 37°44' E 025°49'511.4
2019-Jul-05 21:00N 37°41' E 025°44'612.1
2019-Jul-05 20:30N 37°35' E 025°43'812.1
2019-Jul-05 19:48N 37°26' E 025°43'412.1
2019-Jul-05 19:30N 37°23' E 025°43'612.4
2019-Jul-05 19:00N 37°17' E 025°43'612.4
2019-Jul-05 18:30N 37°10' E 025°43'  
Track history (hours):
 
Tides and Currents Weather Stations Pressure Air Temp Water Temp Dewpoint Dewpoint Depression Visibility Wind Speed Wind Dir Waves Ship Positions

Veendam (Netherlands)

Last reported at 2019-Jul-15 06:17 UTC. Time now 2019-Jul-16 02:02 UTC.
Position N 44°38' E 013°01'.

Type: Ship. MMSI: 246506000.

Date/timePositionNaut miles runAvg speedWind from/ knotsBaromVisibWave heightAir tempDewpointWater temp
2019-Jul-15 06:17N 44°38' E 013°01'412.4
2019-Jul-15 06:00N 44°41' E 012°59'612.2
2019-Jul-15 05:30N 44°47' E 012°56'612.2
2019-Jul-15 04:58N 44°53' E 012°52'612.4
2019-Jul-15 04:30N 44°58' E 012°48'612.7
2019-Jul-15 04:00N 45°04' E 012°45'611.9
2019-Jul-15 03:30N 45°08' E 012°39'612.6
2019-Jul-15 03:00N 45°11' E 012°31'713.1
2019-Jul-15 02:31N 45°18' E 012°30'611.6
2019-Jul-15 02:00N 45°24' E 012°29'4 8.9
2019-Jul-15 01:31N 45°26' E 012°24'2 4.3
2019-Jul-15 01:00N 45°26' E 012°21'2 3.5
2019-Jul-15 00:30N 45°26' E 012°18'0 0.7
2019-Jul-14 23:58N 45°26' E 012°18'0 0.0
2019-Jul-14 23:28N 45°26' E 012°18'0 0.0
2019-Jul-14 22:58N 45°26' E 012°18'0 0.0
2019-Jul-14 22:28N 45°26' E 012°18'0 0.0
2019-Jul-14 21:58N 45°26' E 012°18'0 0.0
2019-Jul-14 21:28N 45°26' E 012°18'0 0.0
2019-Jul-14 20:58N 45°26' E 012°18'0 0.0
2019-Jul-14 20:28N 45°26' E 012°18'0 0.0
2019-Jul-14 19:58N 45°26' E 012°18'0 0.0
2019-Jul-14 19:28N 45°26' E 012°18'0 0.0
2019-Jul-14 18:58N 45°26' E 012°18'0 0.0
2019-Jul-14 18:28N 45°26' E 012°18'0 0.0
2019-Jul-14 17:58N 45°26' E 012°18'0 0.0
2019-Jul-14 17:28N 45°26' E 012°18'0 0.0
2019-Jul-14 16:58N 45°26' E 012°18'0 0.0
2019-Jul-14 16:28N 45°26' E 012°18'0 0.0
2019-Jul-14 15:58N 45°26' E 012°18'0 0.0
2019-Jul-14 15:28N 45°26' E 012°18'0 0.0
2019-Jul-14 14:58N 45°26' E 012°18'0 0.0
2019-Jul-14 14:28N 45°26' E 012°18'0 0.0
2019-Jul-14 13:58N 45°26' E 012°18'0 0.0
2019-Jul-14 13:28N 45°26' E 012°18'0 0.0
2019-Jul-14 12:58N 45°26' E 012°18'0 0.0
2019-Jul-14 12:28N 45°26' E 012°18'0 0.0
2019-Jul-14 11:55N 45°26' E 012°18'0 0.0
2019-Jul-14 11:28N 45°26' E 012°18'0 0.0
2019-Jul-14 10:58N 45°26' E 012°18'0 0.0
2019-Jul-14 10:28N 45°26' E 012°18'0 0.0
2019-Jul-14 09:58N 45°26' E 012°18'0 0.0
2019-Jul-14 09:28N 45°26' E 012°18'0 0.0
2019-Jul-14 08:58N 45°26' E 012°18'0 0.0
2019-Jul-14 08:28N 45°26' E 012°18'0 0.0
2019-Jul-14 07:58N 45°26' E 012°18'0 0.0
2019-Jul-14 07:28N 45°26' E 012°18'0 0.0
2019-Jul-14 06:58N 45°26' E 012°18'0 0.0
2019-Jul-14 06:28N 45°26' E 012°18'0 0.0
2019-Jul-14 05:58N 45°26' E 012°18'0 0.0
2019-Jul-14 05:28N 45°26' E 012°18'0 0.0
2019-Jul-14 04:58N 45°26' E 012°18'0 0.0
2019-Jul-14 04:28N 45°26' E 012°18'0 1.0
2019-Jul-14 04:00N 45°26' E 012°18'2 4.5
2019-Jul-14 03:30N 45°25' E 012°22'2 4.7
2019-Jul-14 03:00N 45°26' E 012°25'4 8.2
2019-Jul-14 02:30N 45°24' E 012°30'5 9.9
2019-Jul-14 02:00N 45°21' E 012°36'612.3
2019-Jul-14 01:30N 45°17' E 012°42'612.4
2019-Jul-14 01:00N 45°11' E 012°46'612.9
2019-Jul-14 00:30N 45°05' E 012°50'612.9
2019-Jul-14 00:00N 44°59' E 012°53'510.5
2019-Jul-13 23:30N 44°56' E 012°59'612.4
2019-Jul-13 23:00N 44°56' E 013°08'713.8
2019-Jul-13 22:30N 44°56' E 013°17'612.2
2019-Jul-13 22:00N 44°54' E 013°25'612.8
2019-Jul-13 21:30N 44°49' E 013°31'613.0
2019-Jul-13 21:00N 44°43' E 013°37'712.6
2019-Jul-13 20:29N 44°38' E 013°43'612.4
2019-Jul-13 20:00N 44°34' E 013°49'510.8
2019-Jul-13 19:30N 44°36' E 013°56'713.8
2019-Jul-13 19:01N 44°41' E 014°01'714.1
2019-Jul-13 18:30N 44°47' E 014°06'714.0
2019-Jul-13 18:00N 44°54' E 014°11'2 0.1
2019-Jul-13 05:12N 44°55' E 014°12'315.0
2019-Jul-13 04:58N 44°52' E 014°10'816.8
2019-Jul-13 04:30N 44°45' E 014°06'816.9
2019-Jul-13 04:01N 44°37' E 014°03'918.1
2019-Jul-13 03:31N 44°29' E 014°09'1218.2
2019-Jul-13 02:50N 44°18' E 014°17'2018.3
2019-Jul-13 01:44N 44°01' E 014°31'2027.2
2019-Jul-13 01:00N 43°42' E 014°42'375 7.7 150 / 41010.010.8 23.018.3
2019-Jul-11 00:00N 39°00' E 020°12'98 4.7 300 / 501002.010.8 27.022.6
2019-Jul-10 03:00N 37°24' E 020°36'5919.5 340 / 111009.0 5.4 27.0 27.0
2019-Jul-10 00:00N 36°36' E 021°18'9513.8 320 / 201009.0 5.4 27.025.6
2019-Jul-09 17:08N 36°30' E 023°16'3218.6
2019-Jul-09 15:24N 37°01' E 023°05'35 4.7
2019-Jul-09 08:00N 37°30' E 022°42'19 3.6 160 / 121010.0 5.4 28.020.5
2019-Jul-09 02:39N 37°17' E 023°01'413.6
2019-Jul-09 02:23N 37°15' E 023°03'613.4
2019-Jul-09 01:56N 37°10' E 023°08'613.5
2019-Jul-09 01:30N 37°08' E 023°15'813.8
2019-Jul-09 00:55N 37°07' E 023°25'614.1
2019-Jul-09 00:30N 37°06' E 023°32'713.7
2019-Jul-09 00:00N 37°06' E 023°41'713.5
2019-Jul-08 23:30N 37°08' E 023°49'612.4
2019-Jul-08 23:00N 37°13' E 023°54'7446.4
2019-Jul-08 23:00N 37°06' E 023°54'1531.2 120 / 101010.0 5.4 28.020.5
2019-Jul-08 22:31N 37°21' E 023°54'917.4
2019-Jul-08 22:01N 37°29' E 023°50'917.8
2019-Jul-08 21:31N 37°37' E 023°45'917.6
2019-Jul-08 21:01N 37°45' E 023°40'816.7
2019-Jul-08 20:30N 37°53' E 023°36'4 8.1
2019-Jul-08 20:00N 37°56' E 023°38'0 0.2
2019-Jul-08 19:30N 37°56' E 023°38'0 0.0
2019-Jul-08 19:00N 37°56' E 023°38'0 0.0
2019-Jul-08 18:30N 37°56' E 023°38'0 0.0
2019-Jul-08 18:00N 37°56' E 023°38'0 0.0
2019-Jul-08 17:27N 37°56' E 023°38'0 0.0
2019-Jul-08 16:57N 37°56' E 023°38'0 0.0
2019-Jul-08 16:30N 37°56' E 023°38'0 0.0
2019-Jul-08 16:00N 37°56' E 023°38'0 0.0
2019-Jul-08 15:30N 37°56' E 023°38'0 0.0
2019-Jul-08 15:00N 37°56' E 023°38'0 0.0
2019-Jul-08 14:30N 37°56' E 023°38'0 0.0
2019-Jul-08 13:57N 37°56' E 023°38'0 0.0
2019-Jul-08 13:30N 37°56' E 023°38'0 0.0
2019-Jul-08 13:00N 37°56' E 023°38'0 0.0
2019-Jul-08 12:30N 37°56' E 023°38'0 0.0
2019-Jul-08 12:00N 37°56' E 023°38'0 0.0
2019-Jul-08 11:30N 37°56' E 023°38'0 0.0
2019-Jul-08 11:00N 37°56' E 023°38'0 0.0
2019-Jul-08 10:30N 37°56' E 023°38'0 0.0
2019-Jul-08 10:00N 37°56' E 023°38'0 0.0
2019-Jul-08 09:30N 37°56' E 023°38'0 0.0
2019-Jul-08 09:00N 37°56' E 023°38'0 0.0
2019-Jul-08 08:30N 37°56' E 023°38'0 0.0
2019-Jul-08 08:00N 37°56' E 023°38'0 0.0
2019-Jul-08 07:30N 37°56' E 023°38'0 0.0
2019-Jul-08 07:00N 37°56' E 023°38'0 0.0
2019-Jul-08 06:30N 37°56' E 023°38'0 0.0
2019-Jul-08 06:00N 37°56' E 023°38'0 0.0
2019-Jul-08 05:27N 37°56' E 023°38'0 0.0
2019-Jul-08 05:00N 37°56' E 023°38'0 0.0
2019-Jul-08 04:27N 37°56' E 023°38'0 0.0
2019-Jul-08 04:00N 37°56' E 023°38'0 0.0
2019-Jul-08 03:30N 37°56' E 023°38'0 0.0
2019-Jul-08 03:00N 37°56' E 023°38'0 0.0
2019-Jul-08 02:27N 37°56' E 023°38'0 0.4
2019-Jul-08 02:01N 37°57' E 023°38'2 4.5
2019-Jul-08 01:30N 37°54' E 023°37'714.3
2019-Jul-08 01:01N 37°48' E 023°41'714.7
2019-Jul-08 00:30N 37°41' E 023°45'611.6
2019-Jul-08 00:00N 37°36' E 023°48'612.6
2019-Jul-07 23:30N 37°30' E 023°50'1223.9
2019-Jul-07 23:00N 37°18' E 023°54'211.2 220 / 51008.010.8 26.019.9
2019-Jul-07 22:48N 37°19' E 023°56'97 4.1
2019-Jul-06 23:00N 36°18' E 025°30'105 4.6 320 / 201008.010.8 25.019.6
2019-Jul-06 00:00N 37°54' E 026°24'2911.6 360 / 201009.010.8 23.519.6
2019-Jul-05 21:27N 37°44' E 025°49'511.4
2019-Jul-05 21:00N 37°41' E 025°44'612.1
2019-Jul-05 20:30N 37°35' E 025°43'812.1
2019-Jul-05 19:48N 37°26' E 025°43'412.1
2019-Jul-05 19:30N 37°23' E 025°43'612.4
2019-Jul-05 19:00N 37°17' E 025°43'612.4
2019-Jul-05 18:30N 37°10' E 025°43'  

Dump ship's entire track history